This is the latest recevied weather packets stored in our database for station/object OE3TEC-15. If no packets are shown the sender has not sent any weather packets the latest 1 day(s).
| Time | Temp. | Humidity | Pressure | Rain* | Wind** | Luminosity | Snow |
|---|---|---|---|---|---|---|---|
| 1778062052 | 23.89° C | 43% | 1008.5 hPa | 0 mm | - | 728 W/m² | - |
| 1778061445 | 23.89° C | 44% | 1008.6 hPa | 0 mm | - | 719 W/m² | - |
| 1778060838 | 23.33° C | 45% | 1008.6 hPa | 0 mm | - | 443 W/m² | - |
| 1778060232 | 23.33° C | 46% | 1008.8 hPa | 0 mm | - | 672 W/m² | - |
| 1778055372 | 21.11° C | 48% | 1009.2 hPa | 0 mm | - | 540 W/m² | - |
| 1778052944 | 20° C | 54% | 1009.8 hPa | 0 mm | - | 469 W/m² | - |
| 1778052336 | 20° C | 56% | 1009.7 hPa | 0 mm | - | 496 W/m² | - |
| 1778051728 | 20° C | 55% | 1009.8 hPa | 0 mm | - | 331 W/m² | - |
| 1778050515 | 18.89° C | 61% | 1009.9 hPa | 0 mm | - | 373 W/m² | - |
| 1778049907 | 17.78° C | 63% | 1009.9 hPa | 0 mm | - | 96 W/m² | - |
| 1778049300 | 18.33° C | 65% | 1010 hPa | 0 mm | - | 309 W/m² | - |
| 1778048692 | 17.78° C | 66% | 1009.7 hPa | 0 mm | - | 279 W/m² | - |
| 1778048085 | 17.78° C | 67% | 1009.9 hPa | 0 mm | - | 128 W/m² | - |
| 1778047476 | 17.78° C | 68% | 1009.8 hPa | 0 mm | - | 243 W/m² | - |
| 1778046870 | 16.67° C | 71% | 1009.8 hPa | 0 mm | - | 162 W/m² | - |
| 1778046264 | 16.67° C | 71% | 1010 hPa | 0 mm | - | 108 W/m² | - |
| 1778045657 | 16.11° C | 73% | 1009.9 hPa | 0 mm | - | 176 W/m² | - |
| 1778045049 | 15.56° C | 75% | 1009.7 hPa | 0 mm | - | 117 W/m² | - |
| 1778043835 | 15.56° C | 76% | 1009.7 hPa | 0 mm | - | 128 W/m² | - |
| 1778043227 | 15° C | 78% | 1009.7 hPa | 0 mm | - | 85 W/m² | - |
| 1778042620 | 14.44° C | 79% | 1009.4 hPa | 0 mm | - | 57 W/m² | - |
| 1778042013 | 15° C | 78% | 1009.4 hPa | 0 mm | - | 38 W/m² | - |
| 1778041405 | 14.44° C | 80% | 1009.4 hPa | 0 mm | - | 40 W/m² | - |
| 1778040797 | 13.33° C | 83% | 1009.4 hPa | 0 mm | - | 23 W/m² | - |
| 1778040192 | 13.33° C | 82% | 1009.2 hPa | 0 mm | - | 15 W/m² | - |
* Rain latest hour (hover to see other rain measurements)
** Current wind speed in m/s (hover to see current wind gust speed)